Time,TemperatureF,DewpointF,PressureIn,WindDirection,WindDirectionDegrees,WindSpeedMPH,WindSpeedGustMPH,Humidity,HourlyPrecipIn,Conditions,Clouds,dailyrainin,SolarRadiationWatts/m^2,SoftwareType,DateUTC
2013-01-22 00:04:00,15.0,13.0,29.85,SSE,147,1.0,5.0,92,0.00,,,0.00,0,weatherlink.com 1.10,2013-01-22 05:04:00,
2013-01-22 00:19:00,14.9,13.0,29.83,SSE,147,1.0,4.0,92,0.00,,,0.00,0,weatherlink.com 1.10,2013-01-22 05:19:00,
2013-01-22 00:34:00,14.8,13.0,29.83,SE,144,2.0,5.0,92,0.00,,,0.00,0,weatherlink.com 1.10,2013-01-22 05:34:00,
2013-01-22 00:49:00,14.7,13.0,29.83,SE,136,1.0,6.0,92,0.00,,,0.00,0,weatherlink.com 1.10,2013-01-22 05:49:00,
2013-01-22 01:04:00,14.7,13.0,29.82,ESE,115,2.0,7.0,92,0.00,,,0.00,0,weatherlink.com 1.10,2013-01-22 06:04:00,
2013-01-22 01:19:00,14.7,13.0,29.81,ESE,113,3.0,5.0,92,0.00,,,0.00,0,weatherlink.com 1.10,2013-01-22 06:19:00,
2013-01-22 01:34:00,14.6,13.0,29.82,ESE,113,0.0,3.0,92,0.00,,,0.00,0,weatherlink.com 1.10,2013-01-22 06:34:00,
2013-01-22 01:49:00,14.6,13.0,29.81,ESE,113,1.0,5.0,92,0.00,,,0.00,0,weatherlink.com 1.10,2013-01-22 06:49:00,
2013-01-22 02:04:00,14.6,13.0,29.82,ESE,112,5.0,5.0,92,0.00,,,0.00,0,weatherlink.com 1.10,2013-01-22 07:04:00,
2013-01-22 02:19:00,14.3,12.0,29.82,ESE,109,3.0,7.0,92,0.00,,,0.00,0,weatherlink.com 1.10,2013-01-22 07:19:00,
2013-01-22 02:34:00,14.1,12.0,29.82,East,96,2.0,8.0,92,0.00,,,0.00,0,weatherlink.com 1.10,2013-01-22 07:34:00,
2013-01-22 02:49:00,13.6,12.0,29.81,ENE,72,8.0,10.0,91,0.00,,,0.00,0,weatherlink.com 1.10,2013-01-22 07:49:00,
2013-01-22 03:04:00,13.2,11.0,29.81,ENE,76,2.0,9.0,91,0.00,,,0.00,0,weatherlink.com 1.10,2013-01-22 08:04:00,
2013-01-22 03:19:00,12.8,11.0,29.81,East,82,3.0,8.0,91,0.00,,,0.00,0,weatherlink.com 1.10,2013-01-22 08:19:00,
2013-01-22 03:34:00,12.4,10.0,29.81,East,88,0.0,9.0,91,0.00,,,0.00,0,weatherlink.com 1.10,2013-01-22 08:34:00,
2013-01-22 03:49:00,12.0,10.0,29.81,East,88,3.0,8.0,91,0.00,,,0.00,0,weatherlink.com 1.10,2013-01-22 08:49:00,
2013-01-22 04:05:00,11.3,9.0,29.81,East,88,2.0,7.0,90,0.00,,,0.00,0,weatherlink.com 1.10,2013-01-22 09:05:00,
2013-01-22 04:20:00,10.9,9.0,29.81,East,88,1.0,6.0,91,0.00,,,0.00,0,weatherlink.com 1.10,2013-01-22 09:20:00,
2013-01-22 04:35:00,11.0,9.0,29.81,East,88,2.0,7.0,91,0.00,,,0.00,0,weatherlink.com 1.10,2013-01-22 09:35:00,
2013-01-22 04:50:00,10.6,8.0,29.81,East,88,2.0,5.0,90,0.00,,,0.00,0,weatherlink.com 1.10,2013-01-22 09:50:00,
2013-01-22 05:05:00,9.9,8.0,29.81,East,88,2.0,5.0,90,0.00,,,0.00,0,weatherlink.com 1.10,2013-01-22 10:05:00,
2013-01-22 05:20:00,9.8,8.0,29.81,East,88,2.0,6.0,90,0.00,,,0.00,0,weatherlink.com 1.10,2013-01-22 10:20:00,
2013-01-22 05:35:00,9.6,7.0,29.82,East,88,0.0,5.0,90,0.00,,,0.00,0,weatherlink.com 1.10,2013-01-22 10:35:00,
2013-01-22 05:50:00,9.6,7.0,29.82,East,88,2.0,6.0,90,0.00,,,0.00,0,weatherlink.com 1.10,2013-01-22 10:50:00,
2013-01-22 06:05:00,9.6,7.0,29.82,East,88,1.0,3.0,90,0.00,,,0.00,0,weatherlink.com 1.10,2013-01-22 11:05:00,
2013-01-22 06:20:00,9.5,7.0,29.82,East,88,3.0,6.0,90,0.00,,,0.00,0,weatherlink.com 1.10,2013-01-22 11:20:00,
2013-01-22 06:35:00,9.3,7.0,29.82,East,88,1.0,5.0,90,0.00,,,0.00,0,weatherlink.com 1.10,2013-01-22 11:35:00,
2013-01-22 06:50:00,9.1,7.0,29.82,East,88,2.0,3.0,90,0.00,,,0.00,0,weatherlink.com 1.10,2013-01-22 11:50:00,
2013-01-22 07:05:00,9.0,7.0,29.83,East,88,3.0,5.0,90,0.00,,,0.00,0,weatherlink.com 1.10,2013-01-22 12:05:00,
2013-01-22 07:20:00,9.5,7.0,29.83,West,269,7.0,10.0,91,0.00,,,0.00,5,weatherlink.com 1.10,2013-01-22 12:20:00,
2013-01-22 07:35:00,9.4,7.0,29.83,West,277,6.0,13.0,91,0.00,,,0.00,12,weatherlink.com 1.10,2013-01-22 12:35:00,
2013-01-22 07:50:00,9.4,7.0,29.84,West,277,7.0,15.0,90,0.00,,,0.00,16,weatherlink.com 1.10,2013-01-22 12:50:00,
2013-01-22 08:05:00,9.3,7.0,29.84,West,276,11.0,14.0,90,0.00,,,0.00,18,weatherlink.com 1.10,2013-01-22 13:05:00,
2013-01-22 08:20:00,11.4,9.0,29.84,WSW,247,5.0,12.0,91,0.00,,,0.00,,weatherlink.com 1.10,2013-01-22 13:20:00,
2013-01-22 08:35:00,11.9,10.0,29.84,WSW,244,12.0,16.0,91,0.00,,,0.00,,weatherlink.com 1.10,2013-01-22 13:35:00,
2013-01-22 08:50:00,12.0,10.0,29.85,WSW,249,12.0,14.0,90,0.00,,,0.00,,weatherlink.com 1.10,2013-01-22 13:50:00,
2013-01-22 09:05:00,12.3,10.0,29.85,SW,229,11.0,14.0,90,0.00,,,0.00,,weatherlink.com 1.10,2013-01-22 14:05:00,
2013-01-22 09:20:00,12.7,10.0,29.85,WSW,246,8.0,17.0,88,0.00,,,0.00,,weatherlink.com 1.10,2013-01-22 14:20:00,
2013-01-22 09:35:00,13.5,10.0,29.85,SSW,211,7.0,14.0,87,0.00,,,0.00,,weatherlink.com 1.10,2013-01-22 14:35:00,
2013-01-22 09:51:00,14.2,10.0,29.86,West,269,2.0,17.0,83,0.00,,,0.00,,weatherlink.com 1.10,2013-01-22 14:51:00,
2013-01-22 10:06:00,14.7,9.0,29.86,WSW,243,8.0,19.0,77,0.00,,,0.00,,weatherlink.com 1.10,2013-01-22 15:06:00,
2013-01-22 10:21:00,15.0,8.0,29.86,WSW,241,11.0,21.0,75,0.00,,,0.00,,weatherlink.com 1.10,2013-01-22 15:21:00,
2013-01-22 10:36:00,15.2,8.0,29.86,WSW,247,10.0,23.0,72,0.00,,,0.00,,weatherlink.com 1.10,2013-01-22 15:36:00,
2013-01-22 10:51:00,15.5,7.0,29.85,SW,224,9.0,24.0,68,0.00,,,0.00,,weatherlink.com 1.10,2013-01-22 15:51:00,
2013-01-22 11:06:00,15.8,6.0,29.85,WSW,240,12.0,29.0,66,0.00,,,0.00,,weatherlink.com 1.10,2013-01-22 16:06:00,
2013-01-22 11:21:00,16.2,6.0,29.84,WSW,241,16.0,24.0,63,0.00,,,0.00,,weatherlink.com 1.10,2013-01-22 16:21:00,
2013-01-22 11:36:00,16.9,5.0,29.85,WSW,254,16.0,21.0,59,0.00,,,0.00,,weatherlink.com 1.10,2013-01-22 16:36:00,
2013-01-22 11:51:00,16.8,3.0,29.85,WSW,251,6.0,27.0,55,0.00,,,0.00,,weatherlink.com 1.10,2013-01-22 16:51:00,
2013-01-22 12:06:00,16.7,3.0,29.84,WSW,238,8.0,29.0,54,0.00,,,0.00,,weatherlink.com 1.10,2013-01-22 17:06:00,
2013-01-22 12:21:00,16.7,1.0,29.84,West,279,9.0,22.0,51,0.00,,,0.00,,weatherlink.com 1.10,2013-01-22 17:21:00,
2013-01-22 12:52:00,16.7,1.0,29.84,WSW,258,13.0,27.0,49,0.00,,,0.00,,weatherlink.com 1.10,2013-01-22 17:52:00,
2013-01-22 13:07:00,16.3,1.0,29.85,WNW,300,4.0,20.0,50,0.00,,,0.00,,weatherlink.com 1.10,2013-01-22 18:07:00,
2013-01-22 13:22:00,15.5,1.0,29.85,WSW,250,11.0,23.0,52,0.00,,,0.00,,weatherlink.com 1.10,2013-01-22 18:22:00,
2013-01-22 13:37:00,15.4,0.0,29.86,WSW,252,7.0,23.0,50,0.00,,,0.00,,weatherlink.com 1.10,2013-01-22 18:37:00,
2013-01-22 13:52:00,14.9,1.0,29.87,WNW,296,11.0,22.0,55,0.00,,,0.00,,weatherlink.com 1.10,2013-01-22 18:52:00,
2013-01-22 14:07:00,14.8,4.0,29.88,NW,326,8.0,15.0,62,0.00,,,0.00,,weatherlink.com 1.10,2013-01-22 19:07:00,
2013-01-22 14:38:00,16.6,0.0,29.89,WSW,257,11.0,23.0,49,0.00,,,0.00,,weatherlink.com 1.10,2013-01-22 19:38:00,
2013-01-22 14:52:00,15.8,-2.0,29.90,WSW,252,8.0,26.0,46,0.00,,,0.00,,weatherlink.com 1.10,2013-01-22 19:52:00,
2013-01-22 15:07:00,14.9,-2.0,29.90,SW,229,8.0,18.0,48,0.00,,,0.00,,weatherlink.com 1.10,2013-01-22 20:07:00,
2013-01-22 15:22:00,14.7,-1.0,29.91,WSW,237,6.0,19.0,49,0.00,,,0.00,,weatherlink.com 1.10,2013-01-22 20:22:00,
2013-01-22 15:37:00,14.9,-3.0,29.91,WSW,255,12.0,28.0,45,0.00,,,0.00,,weatherlink.com 1.10,2013-01-22 20:37:00,
2013-01-22 15:52:00,14.3,-3.0,29.92,West,279,9.0,25.0,47,0.00,,,0.00,,weatherlink.com 1.10,2013-01-22 20:52:00,
2013-01-22 16:07:00,13.8,-1.0,29.93,WSW,244,9.0,23.0,52,0.00,,,0.00,,weatherlink.com 1.10,2013-01-22 21:07:00,
2013-01-22 16:23:00,13.1,1.0,29.94,WSW,250,10.0,18.0,58,0.00,,,0.00,,weatherlink.com 1.10,2013-01-22 21:23:00,
2013-01-22 16:38:00,12.7,2.0,29.95,West,267,4.0,16.0,63,0.00,,,0.00,,weatherlink.com 1.10,2013-01-22 21:38:00,
2013-01-22 17:08:00,12.1,4.0,29.96,WSW,245,11.0,13.0,70,0.00,,,0.00,,weatherlink.com 1.10,2013-01-22 22:08:00,
2013-01-22 17:23:00,12.1,5.0,29.96,WSW,254,8.0,15.0,72,0.00,,,0.00,,weatherlink.com 1.10,2013-01-22 22:23:00,
2013-01-22 17:38:00,11.2,8.0,29.98,WSW,238,9.0,18.0,86,0.00,,,0.00,,weatherlink.com 1.10,2013-01-22 22:38:00,
2013-01-22 17:53:00,10.8,8.0,29.98,WSW,248,9.0,21.0,88,0.00,,,0.00,,weatherlink.com 1.10,2013-01-22 22:53:00,
2013-01-22 18:08:00,10.4,8.0,30.00,West,261,14.0,20.0,88,0.00,,,0.00,,weatherlink.com 1.10,2013-01-22 23:08:00,
2013-01-22 18:38:00,9.0,6.0,30.02,WSW,256,4.0,20.0,86,0.00,,,0.00,,weatherlink.com 1.10,2013-01-22 23:38:00,
2013-01-22 18:53:00,8.6,5.0,30.02,SW,223,3.0,10.0,85,0.00,,,0.00,,weatherlink.com 1.10,2013-01-22 23:53:00,
2013-01-22 19:08:00,7.9,3.0,30.02,NW,326,11.0,22.0,79,0.00,,,0.00,,weatherlink.com 1.10,2013-01-23 00:08:00,
2013-01-22 19:23:00,7.5,1.0,30.02,NW,315,9.0,17.0,74,0.00,,,0.00,,weatherlink.com 1.10,2013-01-23 00:23:00,
2013-01-22 19:38:00,7.2,1.0,30.03,WNW,298,6.0,18.0,74,0.00,,,0.00,,weatherlink.com 1.10,2013-01-23 00:38:00,
2013-01-22 19:54:00,6.7,0.0,30.03,WNW,292,6.0,19.0,73,0.00,,,0.00,,weatherlink.com 1.10,2013-01-23 00:54:00,
2013-01-22 20:09:00,5.6,-3.0,30.03,WSW,253,14.0,19.0,67,0.00,,,0.00,0,weatherlink.com 1.10,2013-01-23 01:09:00,
2013-01-22 20:24:00,5.5,-4.0,30.04,West,281,9.0,20.0,66,0.00,,,0.00,0,weatherlink.com 1.10,2013-01-23 01:24:00,
2013-01-22 20:39:00,6.6,0.0,30.03,SSE,167,10.0,15.0,74,0.00,,,0.00,,weatherlink.com 1.10,2013-01-23 01:39:00,
2013-01-22 20:54:00,6.1,0.0,30.04,SW,234,5.0,14.0,76,0.00,,,0.00,,weatherlink.com 1.10,2013-01-23 01:54:00,
2013-01-22 21:09:00,5.7,-1.0,30.04,WSW,246,5.0,16.0,74,0.00,,,0.00,,weatherlink.com 1.10,2013-01-23 02:09:00,
2013-01-22 21:24:00,5.4,-2.0,30.04,WSW,246,6.0,15.0,73,0.00,,,0.00,,weatherlink.com 1.10,2013-01-23 02:24:00,
2013-01-22 21:39:00,5.0,-2.0,30.05,WSW,247,7.0,14.0,73,0.00,,,0.00,,weatherlink.com 1.10,2013-01-23 02:39:00,
2013-01-22 21:54:00,4.8,-2.0,30.05,West,269,3.0,11.0,73,0.00,,,0.00,,weatherlink.com 1.10,2013-01-23 02:54:00,
2013-01-22 22:09:00,4.3,-2.0,30.06,West,273,4.0,7.0,74,0.00,,,0.00,,weatherlink.com 1.10,2013-01-23 03:09:00,
2013-01-22 22:24:00,3.8,-3.0,30.06,SW,228,6.0,9.0,74,0.00,,,0.00,,weatherlink.com 1.10,2013-01-23 03:24:00,
2013-01-22 22:39:00,3.8,-3.0,30.07,WSW,245,7.0,11.0,73,0.00,,,0.00,,weatherlink.com 1.10,2013-01-23 03:39:00,
2013-01-22 22:54:00,3.7,-3.0,30.07,SSW,210,5.0,11.0,73,0.00,,,0.00,,weatherlink.com 1.10,2013-01-23 03:54:00,
2013-01-22 23:09:00,3.6,-4.0,30.07,West,263,2.0,11.0,71,0.00,,,0.00,,weatherlink.com 1.10,2013-01-23 04:09:00,
2013-01-22 23:25:00,3.2,-4.0,30.07,WSW,246,5.0,11.0,71,0.00,,,0.00,,weatherlink.com 1.10,2013-01-23 04:25:00,
2013-01-22 23:40:00,3.0,-4.0,30.06,WSW,247,4.0,9.0,71,0.00,,,0.00,,weatherlink.com 1.10,2013-01-23 04:40:00,
2013-01-22 23:55:00,2.8,-5.0,30.06,West,281,5.0,12.0,70,0.00,,,0.00,,weatherlink.com 1.10,2013-01-23 04:55:00,